Time;durP1;ratioP1;P1;durP2;ratioP2;P2;SDS_P1;SDS_P2;PMS_P1;PMS_P2;Temp;Humidity;BMP_temperature;BMP_pressure;BME280_temperature;BME280_humidity;BME280_pressure;Samples;Min_cycle;Max_cycle;Signal;HPM_P1;HPM_P2
2022/04/16 00:00:58;;;;;;;1.43;1.33;;;9.90;99.90;9.10;102775.00;;;;5104737;28;20193;-69
2022/04/16 00:03:24;;;;;;;0.50;0.50;;;9.70;99.90;9.40;102744.00;;;;5103476;28;20184;-70
2022/04/16 00:05:53;;;;;;;0.60;0.60;;;9.60;99.90;9.20;102740.00;;;;5104206;28;20219;-70
2022/04/16 00:08:25;;;;;;;1.10;1.10;;;9.60;99.90;8.70;102777.00;;;;5104487;28;20223;-69
2022/04/16 00:10:54;;;;;;;2.97;1.67;;;9.50;99.90;8.80;102758.00;;;;5104143;28;20597;-69
2022/04/16 00:13:22;;;;;;;2.27;1.67;;;9.40;99.90;8.80;102774.00;;;;5103759;28;20196;-69
2022/04/16 00:15:54;;;;;;;0.77;0.77;;;9.40;99.90;8.70;102784.00;;;;5102879;28;20578;-69
2022/04/16 00:18:21;;;;;;;1.80;1.47;;;9.40;99.90;9.20;102786.00;;;;5087669;28;20211;-69
2022/04/16 00:20:51;;;;;;;0.50;0.50;;;9.40;99.90;9.40;102786.00;;;;5085748;28;20582;-69
2022/04/16 00:23:21;;;;;;;0.77;0.77;;;9.60;99.90;9.20;102799.00;;;;5088242;28;20217;-69
2022/04/16 00:25:56;;;;;;;0.83;0.83;;;9.60;99.90;9.40;102760.00;;;;5102163;28;20632;-69
2022/04/16 00:28:22;;;;;;;1.23;1.20;;;9.60;99.90;9.00;102787.00;;;;5102099;28;20192;-70
2022/04/16 00:30:48;;;;;;;0.50;0.50;;;9.50;99.90;9.40;102793.00;;;;5103378;28;20200;-70
2022/04/16 00:33:19;;;;;;;1.17;1.17;;;9.60;99.90;9.30;102777.00;;;;5101034;28;20197;-70
2022/04/16 00:35:47;;;;;;;0.50;0.50;;;9.60;99.90;9.20;102786.00;;;;5103178;28;20233;-70
2022/04/16 00:38:14;;;;;;;0.87;0.87;;;9.50;99.90;9.00;102786.00;;;;5084309;28;20192;-70
2022/04/16 00:40:42;;;;;;;0.50;0.50;;;9.50;99.90;9.10;102786.00;;;;5102453;28;20341;-70
2022/04/16 00:43:12;;;;;;;0.50;0.50;;;9.40;99.90;9.10;102776.00;;;;5084095;28;20198;-71
2022/04/16 00:45:39;;;;;;;0.50;0.50;;;9.50;99.90;8.90;102759.00;;;;5103178;28;20193;-71
2022/04/16 00:48:07;;;;;;;0.57;0.57;;;9.40;99.90;9.30;102787.00;;;;5086619;28;20222;-70
2022/04/16 00:50:33;;;;;;;0.60;0.60;;;9.50;99.90;9.40;102787.00;;;;5103733;28;20180;-70
2022/04/16 00:53:00;;;;;;;2.27;1.47;;;9.50;99.90;9.20;102747.00;;;;5085819;28;20244;-69
2022/04/16 00:55:26;;;;;;;2.43;1.70;;;9.50;99.90;9.10;102770.00;;;;5085236;28;20226;-69
2022/04/16 00:57:52;;;;;;;1.00;1.00;;;9.50;99.90;8.70;102783.00;;;;5094325;28;20687;-68
2022/04/16 01:00:18;;;;;;;0.70;0.70;;;9.40;99.90;8.60;102784.00;;;;5096027;28;20180;-69
2022/04/16 01:02:46;;;;;;;1.83;1.73;;;9.20;99.90;8.90;102786.00;;;;5096302;28;20574;-69
2022/04/16 01:05:17;;;;;;;0.60;0.60;;;9.20;99.90;8.80;102790.00;;;;5090619;28;20645;-69
2022/04/16 01:07:58;;;;;;;1.23;1.23;;;9.20;99.90;8.70;102793.00;;;;5055950;28;20190;-69
2022/04/16 01:10:31;;;;;;;0.90;0.90;;;9.20;99.90;8.90;102789.00;;;;5073020;28;20550;-69
2022/04/16 01:13:00;;;;;;;2.00;1.27;;;9.30;99.90;9.00;102795.00;;;;5055802;28;20714;-69
2022/04/16 01:15:28;;;;;;;1.20;1.20;;;9.30;99.90;9.00;102787.00;;;;5072579;28;20178;-68
2022/04/16 01:17:57;;;;;;;0.50;0.50;;;9.30;99.90;8.60;102793.00;;;;5073144;28;20272;-68
2022/04/16 01:20:23;;;;;;;0.70;0.70;;;9.20;99.90;8.70;102798.00;;;;5089483;28;20190;-68
2022/04/16 01:22:51;;;;;;;0.70;0.70;;;9.20;99.90;8.60;102808.00;;;;5056226;28;20187;-68
2022/04/16 01:25:20;;;;;;;0.50;0.50;;;9.10;99.90;8.70;102800.00;;;;5054351;28;20188;-69
2022/04/16 01:27:46;;;;;;;1.27;1.23;;;9.20;99.90;8.40;102798.00;;;;5055883;28;20629;-69
2022/04/16 01:30:18;;;;;;;1.30;1.30;;;9.10;99.90;8.70;102800.00;;;;5055935;28;20643;-68
2022/04/16 01:32:48;;;;;;;1.23;1.23;;;9.10;99.90;8.60;102797.00;;;;5055479;28;20243;-69
2022/04/16 01:35:18;;;;;;;1.70;1.60;;;9.10;99.90;8.60;102798.00;;;;5063459;28;20186;-68
2022/04/16 01:37:44;;;;;;;3.60;2.73;;;9.10;99.90;8.70;102801.00;;;;5072492;28;20185;-69
2022/04/16 01:40:16;;;;;;;3.70;2.00;;;9.10;99.90;8.90;102803.00;;;;5072426;28;20184;-68
2022/04/16 01:42:45;;;;;;;0.60;0.60;;;9.20;99.90;8.90;102794.00;;;;5072811;28;20173;-68
2022/04/16 01:45:16;;;;;;;1.40;1.30;;;9.20;99.90;8.80;102786.00;;;;5072546;28;20257;-68
2022/04/16 01:47:46;;;;;;;0.97;0.90;;;9.30;99.90;8.50;102798.00;;;;5072398;28;20484;-68
2022/04/16 01:50:15;;;;;;;0.50;0.50;;;9.10;99.90;8.50;102787.00;;;;5072351;28;20225;-68
2022/04/16 01:52:46;;;;;;;0.67;0.67;;;9.10;99.90;8.90;102788.00;;;;5072489;28;20696;-68
2022/04/16 01:55:16;;;;;;;0.63;0.63;;;9.10;99.90;8.40;102791.00;;;;5073301;28;20189;-69
2022/04/16 01:57:47;;;;;;;0.50;0.50;;;9.00;99.90;8.60;102795.00;;;;5102117;28;20666;-68
2022/04/16 02:00:16;;;;;;;1.50;1.47;;;9.10;99.90;8.60;102782.00;;;;5101397;28;20200;-68
2022/04/16 02:02:42;;;;;;;1.80;1.70;;;9.10;99.90;8.80;102795.00;;;;5084176;28;20188;-69
2022/04/16 02:05:12;;;;;;;2.63;1.20;;;9.00;99.90;9.20;102798.00;;;;5103194;28;20193;-68
2022/04/16 02:07:42;;;;;;;2.87;2.67;;;9.20;99.90;8.50;102792.00;;;;5101056;28;20202;-68
2022/04/16 02:10:09;;;;;;;0.60;0.60;;;9.20;99.90;8.70;102786.00;;;;5101451;28;20234;-68
2022/04/16 02:12:40;;;;;;;2.60;2.40;;;9.10;99.90;8.30;102790.00;;;;5099865;28;20200;-68
2022/04/16 02:15:08;;;;;;;0.87;0.87;;;9.00;99.90;8.30;102788.00;;;;5083272;28;20191;-68
2022/04/16 02:17:38;;;;;;;3.23;3.13;;;8.90;99.90;8.60;102797.00;;;;5100515;28;20192;-68
2022/04/16 02:20:09;;;;;;;2.10;2.00;;;8.90;99.90;8.50;102788.00;;;;5100135;28;20191;-68
2022/04/16 02:22:46;;;;;;;0.70;0.70;;;9.00;99.90;8.50;102787.00;;;;5083443;28;20192;-68
2022/04/16 02:25:13;;;;;;;3.53;3.30;;;9.00;99.90;8.60;102750.00;;;;5100683;28;20643;-68
2022/04/16 02:27:43;;;;;;;1.73;1.63;;;9.20;99.90;8.90;102797.00;;;;5102044;28;20210;-68
2022/04/16 02:30:15;;;;;;;0.50;0.50;;;9.20;99.90;8.80;102796.00;;;;5101655;28;20636;-68
2022/04/16 02:32:47;;;;;;;0.80;0.80;;;9.20;99.90;8.90;102794.00;;;;5099940;28;20209;-68
2022/04/16 02:35:14;;;;;;;2.50;2.30;;;9.30;99.90;8.80;102801.00;;;;5099509;28;20190;-70
2022/04/16 02:37:44;;;;;;;0.60;0.60;;;9.20;99.90;9.00;102786.00;;;;5083636;28;20664;-69
2022/04/16 02:40:11;;;;;;;0.83;0.83;;;9.30;99.90;8.80;102798.00;;;;5100214;28;20330;-71
2022/04/16 02:42:41;;;;;;;1.40;1.30;;;9.30;99.90;8.60;102784.00;;;;5101279;28;20176;-71
2022/04/16 02:47:56;;;;;;;1.17;1.10;;;9.20;99.90;8.80;102796.00;;;;5100756;28;20654;-70
2022/04/16 02:50:27;;;;;;;0.77;0.77;;;9.20;99.90;9.00;102799.00;;;;5100443;28;20183;-70
2022/04/16 02:52:58;;;;;;;3.00;2.80;;;9.30;99.90;8.90;102790.00;;;;5100711;28;20246;-70
2022/04/16 02:55:26;;;;;;;0.60;0.60;;;9.30;99.90;8.80;102792.00;;;;5101715;28;20188;-71
2022/04/16 02:57:56;;;;;;;0.90;0.90;;;9.30;99.90;8.60;102741.00;;;;5110819;28;20628;-70
2022/04/16 03:00:26;;;;;;;1.97;1.87;;;9.20;99.90;8.80;102792.00;;;;5111494;28;20683;-71
2022/04/16 03:02:54;;;;;;;1.87;1.77;;;9.10;99.90;8.70;102780.00;;;;5094855;28;20184;-70
2022/04/16 03:05:23;;;;;;;1.23;1.23;;;9.20;99.90;8.80;102737.00;;;;5093632;28;20242;-70
2022/04/16 03:07:51;;;;;;;2.87;2.67;;;9.20;99.90;8.70;102794.00;;;;5071416;28;20185;-70
2022/04/16 03:10:17;;;;;;;3.43;3.13;;;9.20;99.90;8.40;102799.00;;;;5071665;28;20260;-70
2022/04/16 03:12:51;;;;;;;1.87;1.73;;;9.00;99.90;8.50;102789.00;;;;5071364;28;20226;-68
2022/04/16 03:18:04;;;;;;;2.13;2.03;;;8.90;99.90;8.90;102797.00;;;;5072646;28;20246;-68
2022/04/16 03:20:30;;;;;;;0.67;0.67;;;9.10;99.90;8.50;102812.00;;;;5072631;28;20177;-68
2022/04/16 03:23:00;;;;;;;1.70;1.57;;;9.20;99.90;8.30;102808.00;;;;5075642;28;20245;-68
2022/04/16 03:25:27;;;;;;;1.13;1.13;;;8.90;99.90;8.50;102796.00;;;;5056857;28;20178;-68
2022/04/16 03:27:56;;;;;;;0.70;0.70;;;9.00;99.90;8.60;102794.00;;;;5075309;28;20211;-68
2022/04/16 03:30:23;;;;;;;3.47;3.17;;;9.00;99.90;8.70;102801.00;;;;5075387;28;20168;-68
2022/04/16 03:32:54;;;;;;;1.37;1.37;;;9.10;99.90;8.70;102802.00;;;;5074687;28;20263;-68
2022/04/16 03:35:23;;;;;;;2.20;2.10;;;9.20;99.90;8.50;102802.00;;;;5073040;28;20547;-68
2022/04/16 03:37:49;;;;;;;0.80;0.80;;;9.00;99.90;8.30;102762.00;;;;5074907;28;20249;-68
2022/04/16 03:40:15;;;;;;;0.97;0.97;;;9.00;99.90;8.00;102818.00;;;;5074927;28;20211;-68
2022/04/16 03:42:59;;;;;;;1.53;1.43;;;8.80;99.90;7.80;102809.00;;;;5074442;28;20224;-67
2022/04/16 03:45:34;;;;;;;1.37;1.37;;;8.70;99.90;8.00;102816.00;;;;5076145;28;20623;-67
2022/04/16 03:48:02;;;;;;;2.53;2.43;;;8.60;99.90;8.30;102782.00;;;;5058032;28;20663;-68
2022/04/16 03:50:32;;;;;;;3.43;3.23;;;8.80;99.90;8.00;102828.00;;;;5074553;28;20201;-68
2022/04/16 03:53:01;;;;;;;1.63;1.53;;;8.70;99.90;8.30;102829.00;;;;5074326;28;20210;-68
2022/04/16 04:01:02;;;;;;;2.27;2.17;;;8.70;99.90;7.90;102841.00;;;;5103853;28;20272;-68
2022/04/16 04:03:33;;;;;;;3.60;3.33;;;8.60;99.90;8.00;102793.00;;;;5101950;28;20189;-68
2022/04/16 04:06:02;;;;;;;0.50;0.50;;;8.60;99.90;7.90;102833.00;;;;5103876;28;20542;-68
2022/04/16 04:08:31;;;;;;;1.43;1.33;;;8.40;99.90;7.80;102840.00;;;;5086282;28;20198;-68
2022/04/16 04:10:57;;;;;;;0.97;0.97;;;8.50;99.90;8.00;102835.00;;;;5102586;28;20236;-68
2022/04/16 04:13:23;;;;;;;0.87;0.87;;;8.50;99.90;8.00;102828.00;;;;5085839;28;20184;-68
2022/04/16 04:15:52;;;;;;;1.60;1.53;;;8.60;99.90;8.40;102839.00;;;;5102477;28;20642;-68
2022/04/16 04:18:22;;;;;;;0.90;0.90;;;8.60;99.90;7.90;102836.00;;;;5085496;28;20220;-67
2022/04/16 04:20:48;;;;;;;2.40;1.93;;;8.50;99.90;7.70;102797.00;;;;5102844;28;20977;-67
2022/04/16 04:23:19;;;;;;;0.60;0.60;;;8.50;99.90;8.30;102834.00;;;;5102688;28;20191;-67
2022/04/16 04:25:45;;;;;;;0.60;0.60;;;8.60;99.90;8.10;102848.00;;;;5103612;28;20187;-67
2022/04/16 04:28:13;;;;;;;0.80;0.80;;;8.50;99.90;8.50;102838.00;;;;5103147;28;20271;-68
2022/04/16 04:30:41;;;;;;;2.03;1.93;;;8.70;99.90;8.50;102835.00;;;;5102136;28;20250;-68
2022/04/16 04:33:07;;;;;;;1.60;1.60;;;8.80;99.90;8.60;102807.00;;;;5102027;28;20223;-68
2022/04/16 04:35:33;;;;;;;0.70;0.70;;;8.80;99.90;8.20;102841.00;;;;5102350;28;20264;-68
2022/04/16 04:38:01;;;;;;;1.83;1.83;;;8.70;99.90;8.20;102849.00;;;;5103941;28;20199;-68
2022/04/16 04:40:29;;;;;;;0.80;0.80;;;8.70;99.90;8.40;102847.00;;;;5102032;28;20266;-68
2022/04/16 04:42:57;;;;;;;0.77;0.77;;;8.70;99.90;8.40;102793.00;;;;5102108;28;20191;-68
2022/04/16 04:45:23;;;;;;;0.90;0.90;;;8.80;99.90;8.30;102845.00;;;;5103178;28;20177;-68
2022/04/16 04:47:52;;;;;;;1.20;1.20;;;8.70;99.90;8.50;102846.00;;;;5084093;28;20436;-68
2022/04/16 04:50:17;;;;;;;1.67;1.67;;;8.60;99.90;8.40;102840.00;;;;5102679;28;20185;-68
2022/04/16 04:52:48;;;;;;;0.60;0.60;;;8.70;99.90;8.50;102851.00;;;;5086018;28;20219;-68
2022/04/16 04:55:14;;;;;;;1.23;1.23;;;8.70;99.90;8.40;102846.00;;;;5101620;28;20181;-68
2022/04/16 04:57:42;;;;;;;2.97;1.73;;;8.60;99.90;8.20;102856.00;;;;5113547;28;20180;-68
2022/04/16 05:00:14;;;;;;;1.07;1.07;;;8.70;99.90;8.20;102861.00;;;;5113727;28;20183;-68
2022/04/16 05:02:45;;;;;;;1.43;1.43;;;8.60;99.90;8.40;102846.00;;;;5113428;28;20184;-68
2022/04/16 05:05:14;;;;;;;0.80;0.80;;;8.60;99.90;8.50;102867.00;;;;5096784;28;20549;-69
2022/04/16 05:07:41;;;;;;;2.30;2.20;;;8.80;99.90;9.10;102859.00;;;;5113845;28;20178;-68
2022/04/16 05:10:07;;;;;;;1.77;1.70;;;9.00;99.90;8.70;102859.00;;;;5096404;28;20191;-69
2022/04/16 05:12:33;;;;;;;2.13;2.00;;;8.90;99.90;8.40;102860.00;;;;5112542;28;20215;-69
2022/04/16 05:15:02;;;;;;;3.47;3.37;;;8.80;99.90;8.50;102862.00;;;;5091691;28;20177;-69
2022/04/16 05:17:28;;;;;;;0.60;0.60;;;8.80;99.90;8.90;102872.00;;;;5072580;28;20184;-69
2022/04/16 05:19:55;;;;;;;0.60;0.60;;;8.80;99.90;8.80;102879.00;;;;5055080;28;20671;-69
2022/04/16 05:22:26;;;;;;;0.60;0.60;;;9.00;99.90;9.30;102866.00;;;;5055599;28;20258;-69
2022/04/16 05:24:52;;;;;;;2.07;1.97;;;9.10;99.90;8.50;102876.00;;;;5056168;28;20198;-68
2022/04/16 05:27:18;;;;;;;1.37;1.33;;;9.10;99.90;8.70;102889.00;;;;5056282;28;20193;-68
2022/04/16 05:32:37;;;;;;;3.07;2.77;;;9.50;99.90;9.00;102896.00;;;;5048635;28;20668;-68
2022/04/16 05:35:07;;;;;;;0.70;0.70;;;9.80;99.90;9.60;102885.00;;;;5062829;28;20208;-68
2022/04/16 05:37:34;;;;;;;0.50;0.50;;;9.80;99.90;11.00;102897.00;;;;5082486;28;20246;-68
2022/04/16 05:40:03;;;;;;;0.57;0.57;;;10.60;99.90;11.40;102889.00;;;;5102342;28;20219;-68
2022/04/16 05:42:39;;;;;;;1.90;1.80;;;11.10;99.90;11.80;102877.00;;;;5083651;28;20190;-68
2022/04/16 05:45:06;;;;;;;3.53;1.90;;;11.70;99.90;12.00;102870.00;;;;5085270;28;20277;-68
2022/04/16 05:47:31;;;;;;;0.87;0.87;;;12.00;99.90;10.20;102861.00;;;;5083314;28;20199;-68
2022/04/16 05:49:57;;;;;;;2.57;2.40;;;11.50;99.90;10.10;102834.00;;;;5103126;28;20194;-68
2022/04/16 05:52:23;;;;;;;1.37;1.27;;;11.00;99.90;11.10;102875.00;;;;5101903;28;20236;-68
2022/04/16 05:54:50;;;;;;;0.50;0.50;;;11.10;99.90;12.70;102871.00;;;;5084531;28;20555;-69
2022/04/16 05:57:17;;;;;;;0.30;0.30;;;12.00;99.90;12.60;102844.00;;;;5101210;28;20202;-69
2022/04/16 05:59:43;;;;;;;0.53;0.53;;;12.50;99.90;13.20;102876.00;;;;5084296;28;20189;-69
2022/04/16 06:02:12;;;;;;;1.27;1.23;;;13.10;99.90;14.30;102898.00;;;;5102571;28;20186;-68
2022/04/16 06:04:41;;;;;;;2.17;1.80;;;14.00;99.90;13.00;102899.00;;;;5083286;28;20220;-68
2022/04/16 06:07:09;;;;;;;0.20;0.20;;;13.90;99.90;14.90;102902.00;;;;5101862;28;20298;-68
2022/04/16 06:09:41;;;;;;;1.73;1.63;;;14.50;99.90;13.90;102918.00;;;;5100857;28;20221;-68
2022/04/16 06:12:09;;;;;;;2.17;1.83;;;14.40;99.90;13.90;102913.00;;;;5101108;28;20206;-68
2022/04/16 06:14:40;;;;;;;3.20;2.93;;;14.20;99.90;14.80;102940.00;;;;5099935;28;20178;-68
2022/04/16 06:17:08;;;;;;;4.07;3.67;;;14.50;99.90;14.10;102927.00;;;;5100761;28;20185;-68
2022/04/16 06:19:36;;;;;;;4.33;3.20;;;14.40;99.90;13.80;102927.00;;;;5083935;28;20239;-68
2022/04/16 06:22:11;;;;;;;2.07;1.70;;;14.20;99.90;13.60;102926.00;;;;5100903;28;20642;-68
2022/04/16 06:24:41;;;;;;;3.17;2.23;;;14.00;99.90;13.50;102938.00;;;;5103636;28;20546;-68
2022/04/16 06:27:13;;;;;;;3.60;3.07;;;14.10;99.90;12.80;102916.00;;;;5083269;28;20185;-68
2022/04/16 06:29:39;;;;;;;2.93;2.60;;;13.50;99.90;13.60;102927.00;;;;5100951;28;20279;-69
2022/04/16 06:32:05;;;;;;;4.33;3.27;;;13.70;99.90;13.50;102900.00;;;;5084246;28;20225;-69
2022/04/16 06:34:34;;;;;;;4.40;3.23;;;13.60;99.90;12.60;102918.00;;;;5099555;28;20594;-69
2022/04/16 06:37:03;;;;;;;3.13;2.83;;;13.30;99.90;12.30;102913.00;;;;5091793;28;20178;-69
2022/04/16 06:39:31;;;;;;;4.23;3.20;;;13.20;99.90;12.20;102902.00;;;;5073357;28;20188;-69
2022/04/16 06:41:57;;;;;;;3.83;2.50;;;13.30;99.90;14.20;102937.00;;;;5091724;28;20183;-69
2022/04/16 06:44:34;;;;;;;0.70;0.70;;;14.10;99.90;14.50;102955.00;;;;5074519;28;20191;-69
2022/04/16 06:47:04;;;;;;;3.33;2.33;;;14.60;99.90;13.30;102953.00;;;;5091745;28;20644;-69
2022/04/16 06:49:35;;;;;;;0.80;0.80;;;14.30;99.90;14.60;102946.00;;;;5092248;28;20610;-69
2022/04/16 06:52:06;;;;;;;1.83;1.70;;;14.50;99.90;15.90;102963.00;;;;5092850;28;20283;-68
2022/04/16 06:54:32;;;;;;;4.77;3.33;;;15.40;99.90;15.30;102997.00;;;;5095317;28;20174;-69
2022/04/16 06:57:00;;;;;;;1.03;1.03;;;15.50;99.90;15.60;103003.00;;;;5078164;28;20707;-68
2022/04/16 06:59:26;;;;;;;1.45;1.35;;;15.60;99.90;16.60;103022.00;;;;5095724;28;20176;-68
2022/04/16 07:01:52;;;;;;;1.27;1.07;;;16.40;99.90;13.50;102982.00;;;;5095766;28;20183;-66
2022/04/16 07:04:18;;;;;;;1.80;1.70;;;15.20;99.90;13.90;102958.00;;;;5095982;28;20577;-67
2022/04/16 07:06:44;;;;;;;4.17;3.80;;;14.40;99.90;15.10;103006.00;;;;5095787;28;20179;-68
2022/04/16 07:09:13;;;;;;;1.63;1.52;;;15.30;99.90;14.50;102996.00;;;;5079109;28;20659;-67
2022/04/16 07:11:40;;;;;;;1.25;0.82;;;15.10;99.90;15.70;103003.00;;;;5095402;28;20723;-68
2022/04/16 07:14:11;;;;;;;3.70;3.15;;;15.60;99.90;16.10;103023.00;;;;5096140;28;20196;-68
2022/04/16 07:16:45;;;;;;;2.00;1.33;;;15.90;99.90;17.40;103045.00;;;;5078309;28;20223;-67
2022/04/16 07:19:16;;;;;;;2.42;2.22;;;16.70;99.90;15.30;103035.00;;;;5095320;28;20188;-68
2022/04/16 07:21:54;;;;;;;3.45;1.75;;;16.30;99.90;14.90;102994.00;;;;5095606;28;20173;-67
2022/04/16 07:24:25;;;;;;;1.77;1.27;;;15.40;99.90;16.30;103044.00;;;;5094637;28;20208;-68
2022/04/16 07:26:53;;;;;;;3.03;2.30;;;16.20;99.90;14.50;103047.00;;;;5078381;28;20270;-68
2022/04/16 07:29:21;;;;;;;0.98;0.90;;;16.00;99.90;16.80;103057.00;;;;5096417;28;20173;-68
2022/04/16 07:31:47;;;;;;;3.03;2.25;;;16.40;99.90;15.00;103040.00;;;;5094216;28;20216;-68
2022/04/16 07:34:15;;;;;;;3.20;1.85;;;15.90;99.90;16.30;103032.00;;;;5090007;28;20555;-68
2022/04/16 07:36:43;;;;;;;2.75;2.55;;;16.10;99.90;14.90;103018.00;;;;5100014;28;20180;-67
2022/04/16 07:39:10;;;;;;;1.10;1.00;;;16.00;99.90;16.60;103060.00;;;;5103016;28;20192;-68
2022/04/16 07:41:38;;;;;;;4.30;2.67;;;16.40;99.90;17.40;103060.00;;;;5102391;28;20191;-68
2022/04/16 07:44:07;;;;;;;0.38;0.32;;;16.80;99.90;16.90;103075.00;;;;5103698;28;20638;-68
2022/04/16 07:46:34;;;;;;;2.13;1.92;;;16.90;99.90;16.50;103076.00;;;;5103988;28;20648;-68
2022/04/16 07:49:03;;;;;;;5.30;3.45;;;17.10;99.90;15.80;103060.00;;;;5084078;28;20199;-68
2022/04/16 07:51:32;;;;;;;2.63;2.13;;;16.50;99.90;15.00;103030.00;;;;5087114;28;20293;-68
2022/04/16 07:53:58;;;;;;;0.20;0.20;;;15.60;99.90;14.70;103018.00;;;;5103608;28;20662;-68
2022/04/16 07:56:24;;;;;;;1.73;1.65;;;15.10;99.90;16.60;103043.00;;;;5103636;28;20553;-68
2022/04/16 07:58:51;;;;;;;6.70;1.52;;;16.10;99.90;16.50;103059.00;;;;5104562;28;20188;-68
2022/04/16 08:01:20;;;;;;;1.55;1.00;;;16.50;99.90;17.40;103057.00;;;;5104235;28;20552;-68
2022/04/16 08:03:46;;;;;;;0.68;0.68;;;17.00;99.90;17.40;103085.00;;;;5102861;28;20184;-68
2022/04/16 08:06:15;;;;;;;1.90;1.80;;;17.30;99.90;17.20;103089.00;;;;5103934;28;20187;-69
2022/04/16 08:08:42;;;;;;;3.38;1.70;;;17.30;99.90;16.50;103045.00;;;;5100903;28;20188;-69
2022/04/16 08:11:08;;;;;;;2.03;1.85;;;17.20;99.90;16.20;103038.00;;;;5102692;28;20184;-69
2022/04/16 08:13:34;;;;;;;2.10;2.00;;;16.50;99.90;17.60;103090.00;;;;5085961;28;20199;-69
2022/04/16 08:16:02;;;;;;;4.78;2.35;;;17.10;99.90;17.90;103069.00;;;;5102610;28;20251;-68
2022/04/16 08:18:34;;;;;;;1.05;1.05;;;17.50;99.90;18.50;103106.00;;;;5092052;28;20635;-68
2022/04/16 08:21:07;;;;;;;3.05;2.15;;;17.90;99.90;18.30;103116.00;;;;5060162;28;20307;-68
2022/04/16 08:23:40;;;;;;;2.47;2.15;;;18.20;99.90;16.90;103098.00;;;;5089060;28;20636;-68
2022/04/16 08:26:08;;;;;;;1.83;1.73;;;17.70;99.90;15.30;103064.00;;;;5072846;28;20537;-68
2022/04/16 08:28:40;;;;;;;0.43;0.43;;;16.40;99.90;15.50;103059.00;;;;5071595;28;20256;-68
2022/04/16 08:31:06;;;;;;;2.40;2.30;;;16.10;99.90;16.60;103069.00;;;;5053848;28;20188;-68
2022/04/16 08:33:34;;;;;;;3.30;2.78;;;16.50;99.90;17.20;103096.00;;;;5055128;28;20197;-69
2022/04/16 08:36:03;;;;;;;4.63;1.97;;;16.90;99.90;16.50;103086.00;;;;5061335;28;20204;-68
2022/04/16 08:38:29;;;;;;;1.13;1.00;;;16.90;99.90;17.60;103098.00;;;;5094134;28;20198;-69
2022/04/16 08:40:56;;;;;;;0.30;0.28;;;17.20;99.90;17.90;103097.00;;;;5077108;28;20184;-69
2022/04/16 08:43:22;;;;;;;1.03;0.83;;;17.60;99.90;17.40;103094.00;;;;5077308;28;20547;-68
2022/04/16 08:45:55;;;;;;;1.15;1.13;;;17.60;99.90;17.50;103116.00;;;;5075695;28;20448;-68
2022/04/16 08:48:24;;;;;;;1.23;1.13;;;17.70;99.90;18.40;103125.00;;;;5091823;28;20298;-68
2022/04/16 08:50:55;;;;;;;0.50;0.50;;;18.10;99.90;16.30;103101.00;;;;5073752;28;20242;-69
2022/04/16 08:53:27;;;;;;;2.90;2.10;;;17.10;99.90;17.20;103131.00;;;;5073957;28;20615;-69
2022/04/16 08:55:55;;;;;;;4.47;4.10;;;17.10;99.90;16.60;103106.00;;;;5073222;28;20187;-69
2022/04/16 08:58:24;;;;;;;3.57;3.07;;;17.00;99.90;16.80;103109.00;;;;5075184;28;20549;-68
2022/04/16 09:00:59;;;;;;;5.30;2.90;;;16.90;99.90;16.00;103093.00;;;;5093585;28;20181;-68
2022/04/16 09:03:40;;;;;;;2.90;2.60;;;16.50;99.90;17.30;103110.00;;;;5093803;28;20293;-68
2022/04/16 09:06:09;;;;;;;4.10;2.37;;;16.90;99.90;17.20;103118.00;;;;5092179;28;20180;-69
2022/04/16 09:08:35;;;;;;;2.73;2.37;;;17.30;99.90;17.40;103087.00;;;;5096292;28;20193;-68
2022/04/16 09:11:12;;;;;;;1.17;1.07;;;17.20;99.90;17.60;103120.00;;;;5092718;28;20241;-68
2022/04/16 09:13:56;;;;;;;0.95;0.90;;;17.30;99.90;18.40;103140.00;;;;5093087;28;20201;-68
2022/04/16 09:16:23;;;;;;;0.82;0.82;;;18.00;99.90;17.50;103138.00;;;;5071173;28;20202;-70
2022/04/16 09:18:54;;;;;;;1.48;1.15;;;18.00;99.90;18.70;103144.00;;;;5083402;28;20448;-71
2022/04/16 09:21:27;;;;;;;1.50;1.40;;;18.20;99.90;19.00;103110.00;;;;5072679;28;20213;-68
2022/04/16 09:24:01;;;;;;;2.38;2.13;;;18.60;99.90;18.60;103144.00;;;;5071931;28;20177;-69
2022/04/16 09:26:40;;;;;;;1.45;1.35;;;18.60;99.90;19.10;103163.00;;;;5081731;28;20176;-68
2022/04/16 09:29:13;;;;;;;0.53;0.53;;;18.80;99.90;18.80;103124.00;;;;5088090;28;20202;-69
2022/04/16 09:31:41;;;;;;;1.80;1.70;;;18.60;99.90;17.00;103137.00;;;;5092283;28;20635;-69
2022/04/16 09:34:21;;;;;;;5.30;3.07;;;17.90;99.90;17.80;103143.00;;;;5085584;28;20213;-72
2022/04/16 09:36:49;;;;;;;0.57;0.57;;;17.80;99.90;17.30;103133.00;;;;5071381;28;20651;-72
2022/04/16 09:39:16;;;;;;;1.33;1.13;;;17.50;99.90;18.20;103146.00;;;;5074501;28;20189;-71
2022/04/16 09:41:53;;;;;;;0.30;0.30;;;18.00;99.90;18.20;103144.00;;;;5069080;28;20188;-72
2022/04/16 09:44:30;;;;;;;2.53;1.73;;;18.20;99.90;18.30;103111.00;;;;5054636;28;20175;-73
2022/04/16 09:46:56;;;;;;;4.10;3.37;;;18.40;99.90;17.70;103138.00;;;;5082236;28;20172;-73
2022/04/16 09:49:25;;;;;;;1.30;1.17;;;17.90;99.90;18.60;103144.00;;;;5081789;28;20191;-74
2022/04/16 09:51:52;;;;;;;10.65;1.77;;;18.30;99.90;17.60;103132.00;;;;5070010;28;20212;-74
2022/04/16 09:54:21;;;;;;;0.83;0.83;;;17.90;99.90;18.50;103144.00;;;;5053489;28;20176;-73
2022/04/16 09:56:52;;;;;;;2.10;1.90;;;18.40;99.90;18.20;103135.00;;;;5072258;28;20626;-72
2022/04/16 09:59:18;;;;;;;1.97;1.80;;;18.40;99.90;19.20;103136.00;;;;5069456;28;20183;-70
2022/04/16 10:01:49;;;;;;;3.25;2.33;;;18.80;99.90;18.10;103133.00;;;;5068786;28;20529;-77
2022/04/16 10:04:21;;;;;;;1.90;1.75;;;18.60;99.90;18.50;103142.00;;;;5071069;28;20170;-72
2022/04/16 10:06:51;;;;;;;0.80;0.80;;;18.50;99.90;19.30;103117.00;;;;5070508;28;20188;-69
2022/04/16 10:09:17;;;;;;;0.60;0.60;;;18.90;99.90;18.60;103137.00;;;;5069731;28;20169;-75
2022/04/16 10:14:58;;;;;;;1.90;1.63;;;18.30;99.90;18.40;103145.00;;;;5070364;28;20275;-73
2022/04/16 10:17:46;;;;;;;1.77;1.67;;;18.10;99.90;19.00;103107.00;;;;5068354;28;20216;-72
2022/04/16 10:20:16;;;;;;;1.05;1.05;;;18.70;99.90;19.60;103152.00;;;;5073657;28;20218;-74
2022/04/16 10:33:18;;;;;;;2.07;1.83;;;18.10;99.90;18.00;103152.00;;;;5069210;28;20613;-69
2022/04/16 10:35:56;;;;;;;1.33;1.23;;;18.10;99.90;17.80;103139.00;;;;5047426;28;20176;-71
2022/04/16 10:38:47;;;;;;;0.77;0.70;;;18.10;99.90;18.00;103105.00;;;;5024139;28;20279;-68
2022/04/16 10:41:27;;;;;;;3.03;0.68;;;18.00;99.90;18.30;103138.00;;;;5028313;28;20191;-71
2022/04/16 10:43:59;;;;;;;1.07;1.07;;;18.40;99.90;17.60;103139.00;;;;5027481;28;20272;-73
2022/04/16 10:46:48;;;;;;;0.83;0.40;;;17.90;99.90;17.80;103099.00;;;;5035196;28;20228;-75
2022/04/16 10:49:17;;;;;;;0.57;0.57;;;17.80;99.90;18.70;103137.00;;;;5047091;28;20661;-71
2022/04/16 10:51:47;;;;;;;2.58;1.73;;;18.40;99.90;19.30;103141.00;;;;5047220;28;20269;-70
2022/04/16 10:54:36;;;;;;;1.30;1.05;;;18.90;99.90;18.50;103100.00;;;;5047656;28;20184;-70
2022/04/16 10:57:04;;;;;;;5.55;2.60;;;18.60;99.90;18.00;103115.00;;;;5049122;28;20183;-74
2022/04/16 10:59:43;;;;;;;6.85;3.97;;;18.40;99.90;18.70;103119.00;;;;5047376;28;20181;-70
2022/04/16 11:02:15;;;;;;;1.23;0.98;;;18.50;99.90;19.00;103119.00;;;;5048448;28;20632;-68
2022/04/16 11:04:41;;;;;;;4.10;1.88;;;18.80;99.90;17.40;103115.00;;;;5048753;28;20194;-73
2022/04/16 11:07:20;;;;;;;2.13;2.03;;;18.50;99.90;18.30;103122.00;;;;5048699;28;20303;-68
2022/04/16 11:10:10;;;;;;;1.38;1.27;;;18.30;99.90;19.30;103096.00;;;;5048794;28;20189;-68
2022/04/16 11:12:40;;;;;;;0.47;0.47;;;18.80;99.90;20.00;103092.00;;;;5048762;28;20658;-68
2022/04/16 11:15:24;;;;;;;0.90;0.60;;;19.40;99.90;20.10;103029.00;;;;5048657;28;20645;-68
2022/04/16 11:18:03;;;;;;;2.90;2.53;;;19.90;99.90;19.80;103056.00;;;;5049509;28;20182;-68
2022/04/16 11:20:41;;;;;;;2.95;2.47;;;19.80;99.90;18.90;103028.00;;;;5048175;28;20539;-68
2022/04/16 11:23:16;;;;;;;2.80;2.05;;;19.30;99.90;18.80;103061.00;;;;5047975;28;20528;-69
2022/04/16 11:34:20;;;;;;;0.85;0.80;;;18.50;99.90;18.80;103059.00;;;;5049174;28;20216;-68
2022/04/16 11:37:09;;;;;;;4.72;2.17;;;18.80;99.90;18.70;103052.00;;;;5049616;28;20176;-68
2022/04/16 11:39:46;;;;;;;3.22;1.35;;;18.90;99.90;18.70;103021.00;;;;5040442;28;20217;-70
2022/04/16 11:42:12;;;;;;;0.60;0.60;;;18.70;99.90;18.80;103049.00;;;;5047462;28;20195;-69